sensor_id;sensor_type;location;lat;lon;timestamp;pressure;altitude;pressure_sealevel;temperature;humidity
5883;BME280;2967;51.488;6.618;2023-04-22T00:02:05;100589.09;;;11.33;100.00
5883;BME280;2967;51.488;6.618;2023-04-22T00:07:07;100587.94;;;11.24;100.00
5883;BME280;2967;51.488;6.618;2023-04-22T00:12:10;100586.47;;;11.08;100.00
5883;BME280;2967;51.488;6.618;2023-04-22T00:17:15;100587.84;;;11.13;100.00
5883;BME280;2967;51.488;6.618;2023-04-22T00:22:17;100582.78;;;11.10;100.00
5883;BME280;2967;51.488;6.618;2023-04-22T00:27:20;100584.38;;;11.00;100.00
5883;BME280;2967;51.488;6.618;2023-04-22T00:32:24;100542.25;;;10.85;100.00
5883;BME280;2967;51.488;6.618;2023-04-22T00:37:27;100570.72;;;10.94;100.00
5883;BME280;2967;51.488;6.618;2023-04-22T00:42:30;100556.72;;;10.92;100.00
5883;BME280;2967;51.488;6.618;2023-04-22T00:47:35;100552.06;;;10.95;100.00
5883;BME280;2967;51.488;6.618;2023-04-22T00:52:38;100552.41;;;10.91;100.00
5883;BME280;2967;51.488;6.618;2023-04-22T00:57:41;100562.78;;;10.81;100.00
5883;BME280;2967;51.488;6.618;2023-04-22T01:02:46;100545.84;;;10.71;100.00
5883;BME280;2967;51.488;6.618;2023-04-22T01:07:49;100553.88;;;10.82;100.00
5883;BME280;2967;51.488;6.618;2023-04-22T01:12:52;100545.22;;;10.80;100.00
5883;BME280;2967;51.488;6.618;2023-04-22T01:17:56;100542.34;;;10.83;100.00
5883;BME280;2967;51.488;6.618;2023-04-22T01:23:01;100552.41;;;10.91;100.00
5883;BME280;2967;51.488;6.618;2023-04-22T01:28:06;100541.31;;;10.86;100.00
5883;BME280;2967;51.488;6.618;2023-04-22T01:33:09;100543.31;;;10.95;100.00
5883;BME280;2967;51.488;6.618;2023-04-22T01:38:13;100547.88;;;10.93;100.00
5883;BME280;2967;51.488;6.618;2023-04-22T01:43:16;100547.63;;;10.96;100.00
5883;BME280;2967;51.488;6.618;2023-04-22T01:48:19;100540.75;;;10.93;100.00
5883;BME280;2967;51.488;6.618;2023-04-22T01:53:22;100542.25;;;10.97;100.00
5883;BME280;2967;51.488;6.618;2023-04-22T01:58:28;100537.16;;;10.94;100.00
5883;BME280;2967;51.488;6.618;2023-04-22T02:03:31;100538.66;;;10.98;100.00
5883;BME280;2967;51.488;6.618;2023-04-22T02:08:34;100508.59;;;10.87;100.00
5883;BME280;2967;51.488;6.618;2023-04-22T02:13:39;100557.91;;;11.00;100.00
5883;BME280;2967;51.488;6.618;2023-04-22T02:18:42;100549.97;;;11.00;100.00
5883;BME280;2967;51.488;6.618;2023-04-22T02:23:44;100542.97;;;10.99;100.00
5883;BME280;2967;51.488;6.618;2023-04-22T02:28:49;100531.84;;;11.07;100.00
5883;BME280;2967;51.488;6.618;2023-04-22T02:33:52;100526.88;;;11.02;100.00
5883;BME280;2967;51.488;6.618;2023-04-22T02:38:55;100530.91;;;11.08;100.00
5883;BME280;2967;51.488;6.618;2023-04-22T02:43:59;100533.22;;;11.12;100.00
5883;BME280;2967;51.488;6.618;2023-04-22T02:49:02;100521.66;;;11.13;100.00
5883;BME280;2967;51.488;6.618;2023-04-22T02:54:04;100516.84;;;11.07;100.00
5883;BME280;2967;51.488;6.618;2023-04-22T02:59:08;100509.09;;;11.04;100.00
5883;BME280;2967;51.488;6.618;2023-04-22T03:04:11;100507.72;;;11.11;100.00
5883;BME280;2967;51.488;6.618;2023-04-22T03:09:15;100502.91;;;11.16;100.00
5883;BME280;2967;51.488;6.618;2023-04-22T03:14:19;100500.25;;;11.16;100.00
5883;BME280;2967;51.488;6.618;2023-04-22T03:19:22;100496.00;;;11.26;100.00
5883;BME280;2967;51.488;6.618;2023-04-22T03:24:25;100478.31;;;11.27;100.00
5883;BME280;2967;51.488;6.618;2023-04-22T03:29:29;100484.97;;;11.32;100.00
5883;BME280;2967;51.488;6.618;2023-04-22T03:34:32;100481.38;;;11.33;100.00
5883;BME280;2967;51.488;6.618;2023-04-22T03:39:38;100470.53;;;11.36;100.00
5883;BME280;2967;51.488;6.618;2023-04-22T03:44:44;100473.94;;;11.38;100.00
5883;BME280;2967;51.488;6.618;2023-04-22T03:49:48;100480.47;;;11.45;100.00
5883;BME280;2967;51.488;6.618;2023-04-22T03:54:51;100467.56;;;11.41;100.00
5883;BME280;2967;51.488;6.618;2023-04-22T03:59:55;100469.25;;;11.42;100.00
5883;BME280;2967;51.488;6.618;2023-04-22T04:04:58;100467.38;;;11.44;100.00
5883;BME280;2967;51.488;6.618;2023-04-22T04:10:03;100459.91;;;11.49;100.00
5883;BME280;2967;51.488;6.618;2023-04-22T04:15:08;100462.06;;;11.44;100.00
5883;BME280;2967;51.488;6.618;2023-04-22T04:20:13;100461.31;;;11.42;100.00
5883;BME280;2967;51.488;6.618;2023-04-22T04:25:16;100464.09;;;11.40;100.00
5883;BME280;2967;51.488;6.618;2023-04-22T04:30:23;100439.03;;;11.21;100.00
5883;BME280;2967;51.488;6.618;2023-04-22T04:35:28;100448.25;;;11.28;100.00
5883;BME280;2967;51.488;6.618;2023-04-22T04:40:33;100442.63;;;11.32;100.00
5883;BME280;2967;51.488;6.618;2023-04-22T04:45:43;100447.56;;;11.37;100.00
5883;BME280;2967;51.488;6.618;2023-04-22T04:50:51;100440.34;;;11.39;100.00
5883;BME280;2967;51.488;6.618;2023-04-22T04:55:56;100431.34;;;11.41;100.00
5883;BME280;2967;51.488;6.618;2023-04-22T05:01:02;100430.91;;;11.47;100.00
5883;BME280;2967;51.488;6.618;2023-04-22T05:06:06;100427.06;;;11.51;100.00
5883;BME280;2967;51.488;6.618;2023-04-22T05:11:10;100412.84;;;11.52;100.00
5883;BME280;2967;51.488;6.618;2023-04-22T05:16:16;100420.16;;;11.61;100.00
5883;BME280;2967;51.488;6.618;2023-04-22T05:21:20;100426.91;;;11.65;100.00
5883;BME280;2967;51.488;6.618;2023-04-22T05:26:23;100426.56;;;11.70;100.00
5883;BME280;2967;51.488;6.618;2023-04-22T05:31:28;100422.72;;;11.74;100.00
5883;BME280;2967;51.488;6.618;2023-04-22T05:36:31;100425.97;;;11.77;100.00
5883;BME280;2967;51.488;6.618;2023-04-22T05:41:34;100426.75;;;11.90;100.00
5883;BME280;2967;51.488;6.618;2023-04-22T05:46:45;100427.59;;;12.02;100.00
5883;BME280;2967;51.488;6.618;2023-04-22T05:51:49;100434.16;;;12.09;100.00
5883;BME280;2967;51.488;6.618;2023-04-22T05:56:55;100435.38;;;12.16;100.00
5883;BME280;2967;51.488;6.618;2023-04-22T06:02:00;100423.19;;;12.24;100.00
5883;BME280;2967;51.488;6.618;2023-04-22T06:07:03;100433.09;;;12.33;100.00
5883;BME280;2967;51.488;6.618;2023-04-22T06:12:06;100429.03;;;12.40;100.00
5883;BME280;2967;51.488;6.618;2023-04-22T06:17:10;100436.25;;;12.49;100.00
5883;BME280;2967;51.488;6.618;2023-04-22T06:22:13;100430.72;;;12.63;100.00
5883;BME280;2967;51.488;6.618;2023-04-22T06:27:16;100431.19;;;12.68;100.00
5883;BME280;2967;51.488;6.618;2023-04-22T06:32:20;100431.41;;;12.76;100.00
5883;BME280;2967;51.488;6.618;2023-04-22T06:37:23;100416.94;;;12.91;100.00
5883;BME280;2967;51.488;6.618;2023-04-22T06:42:27;100417.78;;;13.03;100.00
5883;BME280;2967;51.488;6.618;2023-04-22T06:47:50;100418.50;;;13.16;100.00
5883;BME280;2967;51.488;6.618;2023-04-22T06:52:57;100420.81;;;13.40;100.00
5883;BME280;2967;51.488;6.618;2023-04-22T06:58:00;100418.66;;;13.66;100.00
5883;BME280;2967;51.488;6.618;2023-04-22T07:03:04;100426.09;;;13.83;100.00
5883;BME280;2967;51.488;6.618;2023-04-22T07:08:07;100415.31;;;14.05;100.00
5883;BME280;2967;51.488;6.618;2023-04-22T07:13:10;100420.91;;;14.22;100.00
5883;BME280;2967;51.488;6.618;2023-04-22T07:18:13;100420.72;;;14.35;100.00
5883;BME280;2967;51.488;6.618;2023-04-22T07:23:16;100412.84;;;14.54;100.00
5883;BME280;2967;51.488;6.618;2023-04-22T07:28:19;100405.84;;;14.62;100.00
5883;BME280;2967;51.488;6.618;2023-04-22T07:33:23;100414.06;;;14.80;100.00
5883;BME280;2967;51.488;6.618;2023-04-22T07:38:25;100403.75;;;14.96;100.00
5883;BME280;2967;51.488;6.618;2023-04-22T07:43:28;100392.56;;;15.11;100.00
5883;BME280;2967;51.488;6.618;2023-04-22T07:48:32;100402.25;;;15.22;100.00
5883;BME280;2967;51.488;6.618;2023-04-22T07:53:35;100384.22;;;15.35;100.00
5883;BME280;2967;51.488;6.618;2023-04-22T07:58:37;100384.38;;;15.43;100.00
5883;BME280;2967;51.488;6.618;2023-04-22T08:03:41;100378.91;;;15.44;100.00
5883;BME280;2967;51.488;6.618;2023-04-22T08:08:45;100377.09;;;15.54;100.00
5883;BME280;2967;51.488;6.618;2023-04-22T08:13:47;100380.31;;;15.67;100.00
5883;BME280;2967;51.488;6.618;2023-04-22T08:18:51;100384.06;;;15.84;100.00
5883;BME280;2967;51.488;6.618;2023-04-22T08:23:54;100379.00;;;15.90;100.00
5883;BME280;2967;51.488;6.618;2023-04-22T08:28:56;100381.66;;;15.99;100.00
5883;BME280;2967;51.488;6.618;2023-04-22T08:34:00;100367.13;;;16.21;100.00
5883;BME280;2967;51.488;6.618;2023-04-22T08:39:03;100359.78;;;16.42;100.00
5883;BME280;2967;51.488;6.618;2023-04-22T08:44:06;100362.44;;;16.51;100.00
5883;BME280;2967;51.488;6.618;2023-04-22T08:49:11;100346.22;;;16.62;100.00
5883;BME280;2967;51.488;6.618;2023-04-22T08:54:15;100350.50;;;16.73;100.00
5883;BME280;2967;51.488;6.618;2023-04-22T08:59:18;100337.41;;;16.79;100.00
5883;BME280;2967;51.488;6.618;2023-04-22T09:04:22;100327.75;;;17.13;100.00
5883;BME280;2967;51.488;6.618;2023-04-22T09:09:26;100336.47;;;17.15;100.00
5883;BME280;2967;51.488;6.618;2023-04-22T09:14:30;100323.00;;;17.07;100.00
5883;BME280;2967;51.488;6.618;2023-04-22T09:19:36;100347.47;;;17.12;100.00
5883;BME280;2967;51.488;6.618;2023-04-22T09:24:42;100344.03;;;17.20;100.00
5883;BME280;2967;51.488;6.618;2023-04-22T09:29:47;100338.03;;;17.35;100.00
5883;BME280;2967;51.488;6.618;2023-04-22T09:34:52;100331.22;;;17.58;100.00
5883;BME280;2967;51.488;6.618;2023-04-22T09:39:55;100319.75;;;17.66;99.45
5883;BME280;2967;51.488;6.618;2023-04-22T09:44:58;100312.28;;;17.77;99.70
5883;BME280;2967;51.488;6.618;2023-04-22T09:50:05;100326.00;;;18.00;99.37
5883;BME280;2967;51.488;6.618;2023-04-22T09:55:08;100331.56;;;18.06;99.27
5883;BME280;2967;51.488;6.618;2023-04-22T10:00:12;100327.06;;;18.07;98.52
5883;BME280;2967;51.488;6.618;2023-04-22T10:05:16;100323.00;;;18.03;99.53
5883;BME280;2967;51.488;6.618;2023-04-22T10:10:19;100321.44;;;18.18;99.07
5883;BME280;2967;51.488;6.618;2023-04-22T10:15:22;100318.78;;;18.18;100.00
5883;BME280;2967;51.488;6.618;2023-04-22T10:20:29;100310.94;;;18.24;99.81
5883;BME280;2967;51.488;6.618;2023-04-22T10:25:33;100295.28;;;18.29;100.00
5883;BME280;2967;51.488;6.618;2023-04-22T10:30:37;100313.59;;;18.50;98.89
5883;BME280;2967;51.488;6.618;2023-04-22T10:36:09;100316.31;;;18.58;98.49
5883;BME280;2967;51.488;6.618;2023-04-22T10:41:13;100294.59;;;18.69;97.40
5883;BME280;2967;51.488;6.618;2023-04-22T10:52:26;100307.22;;;18.92;98.46
5883;BME280;2967;51.488;6.618;2023-04-22T10:57:39;100301.56;;;19.11;97.70
5883;BME280;2967;51.488;6.618;2023-04-22T11:02:43;100303.97;;;19.30;96.36
5883;BME280;2967;51.488;6.618;2023-04-22T11:07:48;100294.91;;;19.55;94.54
5883;BME280;2967;51.488;6.618;2023-04-22T11:12:51;100299.78;;;19.67;93.48
5883;BME280;2967;51.488;6.618;2023-04-22T11:17:55;100289.00;;;19.83;93.50
5883;BME280;2967;51.488;6.618;2023-04-22T11:22:59;100306.47;;;20.03;90.71
5883;BME280;2967;51.488;6.618;2023-04-22T11:28:02;100298.91;;;20.15;90.61
5883;BME280;2967;51.488;6.618;2023-04-22T11:33:04;100268.91;;;19.87;92.86
5883;BME280;2967;51.488;6.618;2023-04-22T11:38:09;100292.75;;;19.74;93.50
5883;BME280;2967;51.488;6.618;2023-04-22T11:43:12;100296.25;;;19.75;96.06
5883;BME280;2967;51.488;6.618;2023-04-22T11:48:15;100297.22;;;19.98;93.02
5883;BME280;2967;51.488;6.618;2023-04-22T11:53:20;100291.38;;;19.94;93.64
5883;BME280;2967;51.488;6.618;2023-04-22T11:58:25;100277.94;;;20.10;94.27
5883;BME280;2967;51.488;6.618;2023-04-22T12:03:32;100261.25;;;20.31;93.14
5883;BME280;2967;51.488;6.618;2023-04-22T12:08:40;100257.28;;;20.57;93.00
5883;BME280;2967;51.488;6.618;2023-04-22T12:13:45;100256.25;;;20.58;90.88
5883;BME280;2967;51.488;6.618;2023-04-22T12:18:49;100265.22;;;20.43;90.27
5883;BME280;2967;51.488;6.618;2023-04-22T12:23:56;100270.38;;;20.52;89.47
5883;BME280;2967;51.488;6.618;2023-04-22T12:28:59;100275.06;;;20.58;87.62
5883;BME280;2967;51.488;6.618;2023-04-22T12:34:02;100269.03;;;20.56;87.19
5883;BME280;2967;51.488;6.618;2023-04-22T12:39:07;100277.66;;;20.44;87.32
5883;BME280;2967;51.488;6.618;2023-04-22T12:44:12;100269.50;;;20.21;88.55
5883;BME280;2967;51.488;6.618;2023-04-22T12:49:15;100273.72;;;20.16;89.11
5883;BME280;2967;51.488;6.618;2023-04-22T12:54:19;100285.63;;;20.13;88.05
5883;BME280;2967;51.488;6.618;2023-04-22T12:59:22;100285.31;;;20.00;88.81
5883;BME280;2967;51.488;6.618;2023-04-22T13:04:26;100279.13;;;20.00;89.78
5883;BME280;2967;51.488;6.618;2023-04-22T13:09:30;100279.75;;;20.18;90.45
5883;BME280;2967;51.488;6.618;2023-04-22T13:14:32;100281.41;;;20.27;88.71
5883;BME280;2967;51.488;6.618;2023-04-22T13:19:35;100272.19;;;20.13;89.25
5883;BME280;2967;51.488;6.618;2023-04-22T13:24:39;100288.84;;;19.93;90.27
5883;BME280;2967;51.488;6.618;2023-04-22T13:29:42;100289.19;;;19.90;91.28
5883;BME280;2967;51.488;6.618;2023-04-22T13:34:45;100297.56;;;19.87;91.62
5883;BME280;2967;51.488;6.618;2023-04-22T13:39:50;100311.69;;;19.81;92.66
5883;BME280;2967;51.488;6.618;2023-04-22T13:44:52;100313.38;;;19.74;94.49
5883;BME280;2967;51.488;6.618;2023-04-22T13:49:55;100235.94;;;19.31;97.01
5883;BME280;2967;51.488;6.618;2023-04-22T13:55:01;100302.13;;;19.62;97.31
5883;BME280;2967;51.488;6.618;2023-04-22T14:00:04;100312.34;;;19.59;98.62
5883;BME280;2967;51.488;6.618;2023-04-22T14:05:12;100313.88;;;19.45;100.00
5883;BME280;2967;51.488;6.618;2023-04-22T14:10:16;100321.09;;;19.53;100.00
5883;BME280;2967;51.488;6.618;2023-04-22T14:15:20;100317.41;;;19.30;100.00
5883;BME280;2967;51.488;6.618;2023-04-22T14:20:23;100334.47;;;19.29;100.00
5883;BME280;2967;51.488;6.618;2023-04-22T14:25:27;100346.81;;;19.14;100.00
5883;BME280;2967;51.488;6.618;2023-04-22T14:30:30;100347.53;;;18.75;100.00
5883;BME280;2967;51.488;6.618;2023-04-22T14:35:33;100353.34;;;18.62;100.00
5883;BME280;2967;51.488;6.618;2023-04-22T14:40:37;100356.94;;;18.45;100.00
5883;BME280;2967;51.488;6.618;2023-04-22T14:45:40;100349.34;;;18.33;100.00
5883;BME280;2967;51.488;6.618;2023-04-22T14:50:43;100354.19;;;18.29;100.00
5883;BME280;2967;51.488;6.618;2023-04-22T14:55:50;100343.69;;;18.18;100.00
5883;BME280;2967;51.488;6.618;2023-04-22T15:00:53;100346.75;;;18.23;100.00
5883;BME280;2967;51.488;6.618;2023-04-22T15:05:56;100346.84;;;18.14;100.00
5883;BME280;2967;51.488;6.618;2023-04-22T15:11:00;100345.88;;;18.15;100.00
5883;BME280;2967;51.488;6.618;2023-04-22T15:16:03;100351.72;;;18.18;100.00
5883;BME280;2967;51.488;6.618;2023-04-22T15:21:07;100350.03;;;18.17;100.00
5883;BME280;2967;51.488;6.618;2023-04-22T15:26:12;100326.00;;;18.00;100.00
5883;BME280;2967;51.488;6.618;2023-04-22T15:31:15;100348.22;;;17.92;100.00
5883;BME280;2967;51.488;6.618;2023-04-22T15:36:18;100353.19;;;17.87;100.00
5883;BME280;2967;51.488;6.618;2023-04-22T15:41:23;100339.38;;;17.74;100.00
5883;BME280;2967;51.488;6.618;2023-04-22T15:46:27;100326.78;;;17.67;100.00
5883;BME280;2967;51.488;6.618;2023-04-22T15:51:30;100330.13;;;17.69;100.00
5883;BME280;2967;51.488;6.618;2023-04-22T15:56:35;100328.78;;;17.65;100.00
5883;BME280;2967;51.488;6.618;2023-04-22T16:01:37;100339.97;;;17.68;100.00
5883;BME280;2967;51.488;6.618;2023-04-22T16:06:41;100329.78;;;17.64;100.00
5883;BME280;2967;51.488;6.618;2023-04-22T16:11:45;100331.06;;;17.60;100.00
5883;BME280;2967;51.488;6.618;2023-04-22T16:16:48;100333.97;;;17.49;100.00
5883;BME280;2967;51.488;6.618;2023-04-22T16:21:51;100332.31;;;17.48;100.00
5883;BME280;2967;51.488;6.618;2023-04-22T16:26:55;100338.44;;;17.40;100.00
5883;BME280;2967;51.488;6.618;2023-04-22T16:31:58;100346.44;;;17.40;100.00
5883;BME280;2967;51.488;6.618;2023-04-22T16:37:01;100348.25;;;17.22;100.00
5883;BME280;2967;51.488;6.618;2023-04-22T16:42:06;100359.06;;;17.03;100.00
5883;BME280;2967;51.488;6.618;2023-04-22T16:47:09;100355.25;;;16.79;100.00
5883;BME280;2967;51.488;6.618;2023-04-22T16:52:12;100360.69;;;16.60;100.00
5883;BME280;2967;51.488;6.618;2023-04-22T16:57:16;100367.16;;;16.57;100.00
5883;BME280;2967;51.488;6.618;2023-04-22T17:02:19;100368.47;;;16.53;100.00
5883;BME280;2967;51.488;6.618;2023-04-22T17:07:22;100339.44;;;16.31;100.00
5883;BME280;2967;51.488;6.618;2023-04-22T17:12:26;100368.66;;;16.42;100.00
5883;BME280;2967;51.488;6.618;2023-04-22T17:17:30;100363.47;;;16.31;100.00
5883;BME280;2967;51.488;6.618;2023-04-22T17:22:33;100365.03;;;16.24;100.00
5883;BME280;2967;51.488;6.618;2023-04-22T17:27:37;100359.56;;;16.16;100.00
5883;BME280;2967;51.488;6.618;2023-04-22T17:32:39;100368.13;;;16.20;100.00
5883;BME280;2967;51.488;6.618;2023-04-22T17:37:42;100366.47;;;16.09;100.00
5883;BME280;2967;51.488;6.618;2023-04-22T17:42:47;100357.06;;;16.05;100.00
5883;BME280;2967;51.488;6.618;2023-04-22T17:47:51;100355.53;;;16.03;100.00
5883;BME280;2967;51.488;6.618;2023-04-22T17:52:53;100368.16;;;16.01;100.00
5883;BME280;2967;51.488;6.618;2023-04-22T17:57:57;100361.44;;;15.88;100.00
5883;BME280;2967;51.488;6.618;2023-04-22T18:03:00;100364.84;;;15.80;100.00
5883;BME280;2967;51.488;6.618;2023-04-22T18:08:03;100360.91;;;15.84;100.00
5883;BME280;2967;51.488;6.618;2023-04-22T18:13:07;100368.50;;;15.79;100.00
5883;BME280;2967;51.488;6.618;2023-04-22T18:18:10;100371.28;;;15.78;100.00
5883;BME280;2967;51.488;6.618;2023-04-22T18:23:15;100376.63;;;15.78;100.00
5883;BME280;2967;51.488;6.618;2023-04-22T18:28:19;100381.25;;;15.76;100.00
5883;BME280;2967;51.488;6.618;2023-04-22T18:33:21;100385.91;;;15.74;100.00
5883;BME280;2967;51.488;6.618;2023-04-22T18:38:24;100387.31;;;15.68;100.00
5883;BME280;2967;51.488;6.618;2023-04-22T18:43:29;100399.69;;;15.60;100.00
5883;BME280;2967;51.488;6.618;2023-04-22T18:48:31;100413.84;;;15.51;100.00
5883;BME280;2967;51.488;6.618;2023-04-22T18:53:34;100424.97;;;15.26;100.00
5883;BME280;2967;51.488;6.618;2023-04-22T18:58:38;100442.56;;;15.38;100.00
5883;BME280;2967;51.488;6.618;2023-04-22T19:03:41;100448.19;;;15.35;100.00
5883;BME280;2967;51.488;6.618;2023-04-22T19:08:43;100456.03;;;15.36;100.00
5883;BME280;2967;51.488;6.618;2023-04-22T19:13:47;100461.38;;;15.46;100.00
5883;BME280;2967;51.488;6.618;2023-04-22T19:18:54;100451.22;;;15.21;100.00
5883;BME280;2967;51.488;6.618;2023-04-22T19:23:58;100466.50;;;15.28;100.00
5883;BME280;2967;51.488;6.618;2023-04-22T19:29:02;100463.28;;;15.25;100.00
5883;BME280;2967;51.488;6.618;2023-04-22T19:34:04;100377.59;;;14.71;100.00
5883;BME280;2967;51.488;6.618;2023-04-22T19:39:07;100462.13;;;15.18;100.00
5883;BME280;2967;51.488;6.618;2023-04-22T19:44:11;100468.13;;;15.10;100.00
5883;BME280;2967;51.488;6.618;2023-04-22T19:49:14;100474.31;;;15.11;100.00
5883;BME280;2967;51.488;6.618;2023-04-22T19:54:20;100464.00;;;14.97;100.00
5883;BME280;2967;51.488;6.618;2023-04-22T19:59:24;100478.38;;;15.05;100.00
5883;BME280;2967;51.488;6.618;2023-04-22T20:04:28;100487.56;;;14.92;100.00
5883;BME280;2967;51.488;6.618;2023-04-22T20:09:31;100493.50;;;15.05;100.00
5883;BME280;2967;51.488;6.618;2023-04-22T20:14:37;100494.56;;;14.93;100.00
5883;BME280;2967;51.488;6.618;2023-04-22T20:19:41;100491.38;;;14.69;100.00
5883;BME280;2967;51.488;6.618;2023-04-22T20:24:48;100503.44;;;14.73;100.00
5883;BME280;2967;51.488;6.618;2023-04-22T20:29:56;100492.56;;;14.35;100.00
5883;BME280;2967;51.488;6.618;2023-04-22T20:34:59;100496.97;;;14.25;100.00
5883;BME280;2967;51.488;6.618;2023-04-22T20:40:03;100500.69;;;14.33;100.00
5883;BME280;2967;51.488;6.618;2023-04-22T20:45:08;100506.03;;;14.33;100.00
5883;BME280;2967;51.488;6.618;2023-04-22T20:50:16;100514.81;;;14.34;100.00
5883;BME280;2967;51.488;6.618;2023-04-22T20:55:20;100520.53;;;14.29;100.00
5883;BME280;2967;51.488;6.618;2023-04-22T21:00:26;100526.97;;;14.16;100.00
5883;BME280;2967;51.488;6.618;2023-04-22T21:05:30;100508.03;;;14.09;100.00
5883;BME280;2967;51.488;6.618;2023-04-22T21:10:34;100544.53;;;14.18;100.00
5883;BME280;2967;51.488;6.618;2023-04-22T21:15:39;100547.81;;;14.11;100.00
5883;BME280;2967;51.488;6.618;2023-04-22T21:20:43;100540.06;;;14.08;100.00
5883;BME280;2967;51.488;6.618;2023-04-22T21:25:46;100537.81;;;14.03;100.00
5883;BME280;2967;51.488;6.618;2023-04-22T21:30:51;100535.38;;;14.00;100.00
5883;BME280;2967;51.488;6.618;2023-04-22T21:35:54;100532.13;;;13.97;100.00
5883;BME280;2967;51.488;6.618;2023-04-22T21:40:57;100541.34;;;13.93;100.00
5883;BME280;2967;51.488;6.618;2023-04-22T21:46:01;100544.75;;;13.84;100.00
5883;BME280;2967;51.488;6.618;2023-04-22T21:51:03;100552.28;;;13.79;100.00
5883;BME280;2967;51.488;6.618;2023-04-22T21:56:06;100563.28;;;13.74;100.00
5883;BME280;2967;51.488;6.618;2023-04-22T22:01:10;100571.63;;;13.70;100.00
5883;BME280;2967;51.488;6.618;2023-04-22T22:06:13;100563.66;;;13.70;100.00
5883;BME280;2967;51.488;6.618;2023-04-22T22:11:15;100564.41;;;13.61;100.00
5883;BME280;2967;51.488;6.618;2023-04-22T22:16:32;100563.09;;;13.44;100.00
5883;BME280;2967;51.488;6.618;2023-04-22T22:21:35;100574.22;;;13.27;100.00
5883;BME280;2967;51.488;6.618;2023-04-22T22:26:39;100580.59;;;13.14;100.00
5883;BME280;2967;51.488;6.618;2023-04-22T22:31:44;100595.56;;;13.04;100.00
5883;BME280;2967;51.488;6.618;2023-04-22T22:36:47;100584.03;;;12.93;100.00
5883;BME280;2967;51.488;6.618;2023-04-22T22:41:50;100584.78;;;12.84;100.00
5883;BME280;2967;51.488;6.618;2023-04-22T22:46:54;100488.53;;;12.25;100.00
5883;BME280;2967;51.488;6.618;2023-04-22T22:51:56;100579.06;;;12.66;100.00
5883;BME280;2967;51.488;6.618;2023-04-22T22:57:01;100582.31;;;12.59;100.00
5883;BME280;2967;51.488;6.618;2023-04-22T23:02:07;100591.13;;;12.59;100.00
5883;BME280;2967;51.488;6.618;2023-04-22T23:07:10;100587.72;;;12.57;100.00
5883;BME280;2967;51.488;6.618;2023-04-22T23:12:14;100581.47;;;12.58;100.00
5883;BME280;2967;51.488;6.618;2023-04-22T23:17:18;100575.41;;;12.56;100.00
5883;BME280;2967;51.488;6.618;2023-04-22T23:22:23;100566.25;;;12.49;100.00
5883;BME280;2967;51.488;6.618;2023-04-22T23:27:26;100564.78;;;12.45;100.00
5883;BME280;2967;51.488;6.618;2023-04-22T23:32:30;100564.50;;;12.37;100.00
5883;BME280;2967;51.488;6.618;2023-04-22T23:37:35;100561.13;;;12.35;100.00
5883;BME280;2967;51.488;6.618;2023-04-22T23:42:38;100559.06;;;12.28;100.00
5883;BME280;2967;51.488;6.618;2023-04-22T23:47:42;100560.84;;;12.27;100.00
5883;BME280;2967;51.488;6.618;2023-04-22T23:52:45;100563.91;;;12.34;100.00
5883;BME280;2967;51.488;6.618;2023-04-22T23:57:48;100552.19;;;12.25;100.00
